Time;durP1;ratioP1;P1;durP2;ratioP2;P2;SDS_P1;SDS_P2;PMS_P1;PMS_P2;Temp;Humidity;BMP_temperature;BMP_pressure;BME280_temperature;BME280_humidity;BME280_pressure;Samples;Min_cycle;Max_cycle;Signal;HPM_P1;HPM_P2
2022/09/02 00:01:38;;;;;;;4.73;3.70;;;13.10;95.60;;;;;;5033881;28;20904;-64
2022/09/02 00:04:08;;;;;;;4.47;3.70;;;13.10;95.50;;;;;;5033010;28;20444;-64
2022/09/02 00:06:35;;;;;;;5.17;3.67;;;13.00;95.20;;;;;;5033660;28;20291;-64
2022/09/02 00:09:05;;;;;;;5.77;4.00;;;12.90;95.40;;;;;;5031993;28;20434;-63
2022/09/02 00:11:34;;;;;;;3.55;3.25;;;12.90;95.70;;;;;;5032531;28;20521;-64
2022/09/02 00:14:04;;;;;;;5.20;3.80;;;12.90;95.60;;;;;;5032307;28;20286;-65
2022/09/02 00:16:32;;;;;;;9.43;4.73;;;12.80;95.60;;;;;;5033445;28;20473;-63
2022/09/02 00:19:01;;;;;;;4.77;3.33;;;12.70;96.10;;;;;;5032322;28;20530;-63
2022/09/02 00:21:28;;;;;;;8.98;3.63;;;12.80;96.10;;;;;;5033563;28;20434;-64
2022/09/02 00:23:55;;;;;;;4.10;3.20;;;12.80;96.20;;;;;;5030907;28;20721;-63
2022/09/02 00:26:24;;;;;;;4.33;3.57;;;12.80;96.20;;;;;;5032849;28;20963;-63
2022/09/02 00:28:51;;;;;;;3.80;3.23;;;12.80;95.70;;;;;;5032068;28;20438;-63
2022/09/02 00:31:19;;;;;;;4.10;3.70;;;12.80;95.50;;;;;;5033244;28;20484;-65
2022/09/02 00:33:46;;;;;;;4.53;3.63;;;12.80;95.40;;;;;;5031851;28;20513;-64
2022/09/02 00:36:13;;;;;;;6.00;3.33;;;12.90;95.40;;;;;;5032247;28;20528;-64
2022/09/02 00:38:40;;;;;;;5.20;4.00;;;12.80;95.00;;;;;;5031133;28;20677;-64
2022/09/02 00:41:09;;;;;;;5.00;3.37;;;12.80;94.90;;;;;;5032966;28;20652;-63
2022/09/02 00:43:44;;;;;;;5.03;3.70;;;12.80;95.10;;;;;;5032170;28;20984;-64
2022/09/02 00:46:13;;;;;;;5.30;3.47;;;12.80;95.10;;;;;;5032405;28;20476;-64
2022/09/02 00:48:43;;;;;;;4.10;3.70;;;12.70;95.60;;;;;;5032433;28;20466;-66
2022/09/02 00:51:11;;;;;;;6.40;3.17;;;12.70;95.40;;;;;;5033678;28;20491;-63
2022/09/02 00:53:40;;;;;;;7.25;2.85;;;12.70;95.40;;;;;;5031921;28;20516;-63
2022/09/02 00:56:11;;;;;;;3.60;3.10;;;12.70;95.50;;;;;;5032914;28;20222;-63
2022/09/02 00:58:39;;;;;;;4.53;3.50;;;12.60;95.20;;;;;;5031958;28;20453;-63
2022/09/02 01:01:10;;;;;;;3.95;3.00;;;12.60;95.30;;;;;;5031919;28;20261;-64
2022/09/02 01:03:39;;;;;;;4.15;3.70;;;12.60;95.70;;;;;;5031925;28;20191;-64
2022/09/02 01:06:06;;;;;;;5.22;3.65;;;12.50;95.90;;;;;;5032445;28;20191;-63
2022/09/02 01:08:36;;;;;;;8.30;3.75;;;12.50;96.00;;;;;;5031624;28;20225;-63
2022/09/02 01:11:04;;;;;;;3.92;3.35;;;12.50;96.00;;;;;;5032823;28;20237;-63
2022/09/02 01:13:36;;;;;;;5.28;3.70;;;12.40;95.80;;;;;;5030775;28;20277;-63
2022/09/02 01:16:11;;;;;;;5.60;4.47;;;12.40;95.80;;;;;;5032849;28;20249;-64
2022/09/02 01:18:39;;;;;;;5.65;4.05;;;12.40;96.00;;;;;;5031707;28;20665;-63
2022/09/02 01:21:06;;;;;;;5.32;3.30;;;12.40;96.60;;;;;;5033051;28;20285;-63
2022/09/02 01:23:36;;;;;;;4.00;3.47;;;12.40;96.60;;;;;;5031929;28;20219;-63
2022/09/02 01:26:04;;;;;;;4.30;3.53;;;12.40;96.90;;;;;;5032499;28;20217;-63
2022/09/02 01:28:32;;;;;;;5.38;3.55;;;12.30;96.40;;;;;;5031116;28;20289;-64
2022/09/02 01:30:59;;;;;;;4.30;3.70;;;12.30;96.40;;;;;;5032818;28;20281;-63
2022/09/02 01:33:27;;;;;;;4.90;3.30;;;12.20;96.60;;;;;;5031359;28;20245;-64
2022/09/02 01:35:54;;;;;;;4.97;3.20;;;12.20;96.50;;;;;;5032664;28;20282;-63
2022/09/02 01:38:22;;;;;;;5.25;3.20;;;12.20;96.50;;;;;;5031515;28;20230;-63
2022/09/02 01:40:51;;;;;;;3.70;3.00;;;12.20;96.50;;;;;;5032536;28;20688;-63
2022/09/02 01:43:22;;;;;;;4.38;3.53;;;12.10;96.70;;;;;;5028981;28;20630;-64
2022/09/02 01:45:51;;;;;;;5.50;4.07;;;12.10;96.90;;;;;;5032728;28;20187;-63
2022/09/02 01:48:19;;;;;;;4.13;3.25;;;;;;;;;;5030998;28;20306;-64
2022/09/02 01:50:50;;;;;;;4.55;3.97;;;12.10;97.20;;;;;;5032669;28;20234;-63
2022/09/02 01:53:17;;;;;;;4.45;4.00;;;12.00;97.60;;;;;;5031562;28;20207;-63
2022/09/02 01:55:44;;;;;;;3.40;3.03;;;11.90;97.80;;;;;;5032047;28;20290;-65
2022/09/02 01:58:13;;;;;;;4.00;3.60;;;11.90;97.90;;;;;;5028102;28;20643;-65
2022/09/02 02:00:40;;;;;;;4.65;3.90;;;11.90;97.50;;;;;;5031851;28;20638;-63
2022/09/02 02:03:07;;;;;;;4.65;3.35;;;11.80;97.80;;;;;;5031874;28;20666;-63
2022/09/02 02:05:34;;;;;;;4.57;4.10;;;11.80;98.00;;;;;;5031278;28;20278;-63
2022/09/02 02:08:01;;;;;;;4.10;3.70;;;11.80;97.80;;;;;;5032507;28;20273;-63
2022/09/02 02:10:28;;;;;;;3.92;3.53;;;11.80;98.00;;;;;;5030579;28;20192;-64
2022/09/02 02:12:55;;;;;;;5.55;3.70;;;11.80;98.00;;;;;;5031098;28;20217;-63
2022/09/02 02:15:24;;;;;;;5.38;3.40;;;11.80;98.20;;;;;;5029703;28;20222;-64
2022/09/02 02:17:51;;;;;;;4.70;3.72;;;11.80;98.20;;;;;;5032093;28;20226;-64
2022/09/02 02:20:20;;;;;;;6.85;2.88;;;11.80;98.10;;;;;;5034784;28;20227;-64
2022/09/02 02:22:48;;;;;;;9.30;3.67;;;11.80;98.10;;;;;;5035911;28;20229;-63
2022/09/02 02:25:16;;;;;;;3.45;3.03;;;11.80;98.00;;;;;;5034432;28;20653;-65
2022/09/02 02:27:43;;;;;;;11.00;4.05;;;11.70;98.00;;;;;;5035641;28;20197;-63
2022/09/02 02:30:12;;;;;;;3.90;3.10;;;11.70;97.90;;;;;;5031827;28;20282;-63
2022/09/02 02:32:41;;;;;;;3.63;2.92;;;11.80;97.80;;;;;;5035529;28;20250;-64
2022/09/02 02:35:09;;;;;;;4.13;3.20;;;11.70;97.30;;;;;;5033882;28;20196;-63
2022/09/02 02:37:37;;;;;;;4.90;3.13;;;11.60;97.20;;;;;;5035589;28;20195;-63
2022/09/02 02:40:05;;;;;;;3.33;2.95;;;11.70;97.40;;;;;;5033544;28;20218;-63
2022/09/02 02:42:32;;;;;;;4.28;2.85;;;11.60;97.50;;;;;;5035312;28;20222;-63
2022/09/02 02:44:59;;;;;;;3.60;3.25;;;11.50;97.70;;;;;;5033775;28;20187;-63
2022/09/02 02:47:26;;;;;;;6.40;3.00;;;11.50;97.90;;;;;;5033895;28;20314;-63
2022/09/02 02:49:55;;;;;;;3.90;3.15;;;11.50;97.90;;;;;;5032623;28;20246;-63
2022/09/02 02:52:22;;;;;;;4.50;3.13;;;11.50;97.90;;;;;;5031102;28;21228;-64
2022/09/02 02:54:49;;;;;;;3.78;2.45;;;11.50;97.80;;;;;;5031902;28;20211;-63
2022/09/02 02:57:16;;;;;;;4.40;3.67;;;11.50;97.80;;;;;;5035226;28;20282;-63
2022/09/02 02:59:42;;;;;;;7.47;4.18;;;11.50;97.90;;;;;;5034705;28;20697;-66
2022/09/02 03:02:09;;;;;;;11.43;3.85;;;11.50;97.90;;;;;;5034296;28;20279;-64
2022/09/02 03:04:38;;;;;;;4.25;3.17;;;11.50;98.10;;;;;;5034053;28;20222;-63
2022/09/02 03:07:07;;;;;;;5.20;3.53;;;11.40;98.30;;;;;;5035081;28;20191;-64
2022/09/02 03:09:34;;;;;;;5.03;3.85;;;11.40;98.30;;;;;;5032979;28;20192;-63
2022/09/02 03:12:01;;;;;;;4.20;3.50;;;11.40;98.60;;;;;;5034890;28;20223;-63
2022/09/02 03:14:29;;;;;;;5.30;4.30;;;11.40;98.50;;;;;;5033478;28;20247;-63
2022/09/02 03:16:56;;;;;;;4.57;3.78;;;11.40;98.40;;;;;;5034529;28;20191;-63
2022/09/02 03:19:23;;;;;;;4.95;3.10;;;11.40;98.50;;;;;;5033625;28;20278;-63
2022/09/02 03:21:50;;;;;;;5.13;3.28;;;11.30;97.90;;;;;;5034620;28;20223;-63
2022/09/02 03:24:19;;;;;;;6.55;2.80;;;11.30;97.80;;;;;;5033492;28;20189;-63
2022/09/02 03:26:46;;;;;;;4.00;3.17;;;11.30;97.70;;;;;;5034353;28;20198;-64
2022/09/02 03:29:13;;;;;;;4.32;3.65;;;11.40;97.70;;;;;;5033316;28;20187;-63
2022/09/02 03:31:40;;;;;;;4.00;3.60;;;11.40;97.70;;;;;;5034772;28;20245;-64
2022/09/02 03:34:07;;;;;;;4.43;3.10;;;11.40;97.60;;;;;;5032672;28;20254;-65
2022/09/02 03:36:37;;;;;;;4.00;3.35;;;11.40;97.30;;;;;;5033735;28;20222;-63
2022/09/02 03:39:05;;;;;;;5.88;3.40;;;11.30;97.20;;;;;;5033699;28;20191;-64
2022/09/02 03:41:34;;;;;;;3.72;3.20;;;11.20;97.80;;;;;;5034105;28;20678;-63
2022/09/02 03:44:01;;;;;;;3.20;2.90;;;11.20;98.30;;;;;;5032821;28;20218;-64
2022/09/02 03:46:29;;;;;;;3.67;3.20;;;11.10;98.50;;;;;;5033347;28;20226;-63
2022/09/02 03:48:55;;;;;;;5.13;3.63;;;11.10;98.70;;;;;;5033179;28;20302;-70
2022/09/02 03:51:25;;;;;;;4.20;3.42;;;11.10;98.40;;;;;;5032956;28;20634;-63
2022/09/02 03:53:53;;;;;;;4.15;3.00;;;11.00;98.20;;;;;;5034104;28;20644;-63
2022/09/02 03:56:21;;;;;;;4.53;4.03;;;11.00;98.30;;;;;;5033106;28;20186;-63
2022/09/02 03:58:51;;;;;;;5.18;4.22;;;10.90;99.90;;;;;;5033998;28;20550;-63
2022/09/02 04:01:20;;;;;;;5.80;5.20;;;10.90;97.70;;;;;;5032283;28;20709;-64
2022/09/02 04:03:47;;;;;;;4.13;3.72;;;10.90;96.10;;;;;;5033529;28;20278;-64
2022/09/02 04:06:16;;;;;;;3.70;3.40;;;10.90;95.70;;;;;;5032767;28;20717;-63
2022/09/02 04:08:43;;;;;;;6.30;4.35;;;10.90;97.50;;;;;;5033951;28;20190;-63
2022/09/02 04:11:13;;;;;;;4.70;3.80;;;10.80;98.50;;;;;;5032170;28;20596;-64
2022/09/02 04:13:40;;;;;;;4.05;3.65;;;10.80;98.70;;;;;;5032868;28;20247;-64
2022/09/02 04:16:11;;;;;;;4.93;3.38;;;10.80;98.50;;;;;;5033790;28;20230;-64
2022/09/02 04:18:38;;;;;;;3.70;3.40;;;10.80;98.10;;;;;;5032296;28;20187;-63
2022/09/02 04:21:05;;;;;;;3.67;3.17;;;10.80;98.20;;;;;;5033681;28;20286;-63
2022/09/02 04:23:33;;;;;;;4.75;3.58;;;10.80;97.80;;;;;;5032653;28;20317;-63
2022/09/02 04:26:04;;;;;;;6.82;4.20;;;10.70;97.40;;;;;;5033747;28;20195;-63
2022/09/02 04:28:31;;;;;;;5.22;4.50;;;10.70;97.10;;;;;;5032001;28;20270;-63
2022/09/02 04:30:58;;;;;;;6.30;5.10;;;10.70;97.00;;;;;;5033444;28;20230;-63
2022/09/02 04:33:27;;;;;;;6.40;4.25;;;10.70;97.50;;;;;;5031435;28;20778;-64
2022/09/02 04:35:53;;;;;;;5.95;4.95;;;10.70;97.30;;;;;;5013636;28;20242;-63
2022/09/02 04:38:20;;;;;;;8.30;5.68;;;10.70;97.10;;;;;;5024385;28;20495;-63
2022/09/02 04:40:48;;;;;;;5.35;4.72;;;10.70;97.10;;;;;;5032751;28;20273;-63
2022/09/02 04:43:15;;;;;;;7.70;5.05;;;10.80;96.80;;;;;;5029516;28;20226;-63
2022/09/02 04:45:44;;;;;;;4.25;3.63;;;10.70;96.90;;;;;;5033022;28;20194;-66
2022/09/02 04:48:11;;;;;;;5.55;3.45;;;10.70;97.00;;;;;;5031747;28;20215;-63
2022/09/02 04:50:41;;;;;;;4.78;3.30;;;10.60;96.90;;;;;;5033210;28;20290;-62
2022/09/02 04:53:09;;;;;;;4.30;3.50;;;10.70;96.90;;;;;;5031955;28;20637;-62
2022/09/02 04:55:39;;;;;;;3.90;2.97;;;10.70;96.70;;;;;;5032695;28;20294;-62
2022/09/02 04:58:06;;;;;;;4.82;3.70;;;10.60;96.30;;;;;;5029065;28;20190;-62
2022/09/02 05:00:33;;;;;;;5.07;4.03;;;10.60;96.30;;;;;;5033155;28;20298;-64
2022/09/02 05:03:00;;;;;;;4.90;4.40;;;10.70;96.30;;;;;;5031805;28;20219;-62
2022/09/02 05:05:26;;;;;;;4.03;3.60;;;10.70;96.50;;;;;;5032978;28;20281;-63
2022/09/02 05:07:55;;;;;;;5.05;4.32;;;10.80;96.50;;;;;;5032086;28;20269;-62
2022/09/02 05:10:22;;;;;;;4.65;3.97;;;10.80;96.60;;;;;;5032635;28;20310;-63
2022/09/02 05:12:50;;;;;;;5.57;4.68;;;10.80;97.10;;;;;;5030766;28;20211;-65
2022/09/02 05:15:17;;;;;;;4.55;3.70;;;10.80;97.20;;;;;;5030494;28;20218;-63
2022/09/02 05:17:45;;;;;;;7.45;4.60;;;10.70;97.50;;;;;;5029002;28;20657;-63
2022/09/02 05:20:13;;;;;;;7.93;4.28;;;10.70;97.90;;;;;;5027090;28;20187;-63
2022/09/02 05:22:40;;;;;;;5.25;4.22;;;10.70;98.20;;;;;;5026178;28;20187;-68
2022/09/02 05:25:10;;;;;;;7.35;4.70;;;10.60;98.20;;;;;;5018945;28;20650;-63
2022/09/02 05:27:38;;;;;;;5.00;4.20;;;10.70;98.50;;;;;;5029843;28;20201;-62
2022/09/02 05:30:06;;;;;;;4.75;4.30;;;10.80;98.20;;;;;;5022669;28;20238;-64
2022/09/02 05:32:34;;;;;;;6.43;4.50;;;10.90;98.40;;;;;;5021625;28;20685;-69
2022/09/02 05:35:01;;;;;;;5.00;4.50;;;11.00;98.00;;;;;;5025575;28;20257;-66
2022/09/02 05:37:28;;;;;;;6.50;4.20;;;11.10;98.50;;;;;;5026835;28;20230;-65
2022/09/02 05:39:55;;;;;;;5.20;4.70;;;11.30;98.60;;;;;;5029261;28;20278;-66
2022/09/02 05:42:24;;;;;;;5.63;5.03;;;11.30;98.60;;;;;;5023862;28;20665;-65
2022/09/02 05:44:51;;;;;;;6.05;5.10;;;11.50;98.60;;;;;;5028765;28;20207;-64
2022/09/02 05:47:19;;;;;;;7.38;5.55;;;11.50;98.00;;;;;;5025262;28;20215;-63
2022/09/02 05:49:46;;;;;;;5.30;4.78;;;11.60;98.00;;;;;;5028654;28;20202;-64
2022/09/02 05:52:13;;;;;;;6.43;4.60;;;11.70;98.20;;;;;;5028264;28;20191;-64
2022/09/02 05:54:45;;;;;;;5.40;4.90;;;11.90;98.40;;;;;;5033281;28;20230;-63
2022/09/02 05:57:16;;;;;;;5.38;4.78;;;12.00;98.60;;;;;;5031337;28;20664;-65
2022/09/02 05:59:47;;;;;;;7.35;5.85;;;12.10;98.60;;;;;;5026789;28;20197;-67
2022/09/02 06:02:16;;;;;;;5.50;4.10;;;12.30;98.70;;;;;;5032577;28;20689;-64
2022/09/02 06:04:46;;;;;;;5.90;5.40;;;12.40;98.70;;;;;;5032345;28;20646;-64
2022/09/02 06:07:22;;;;;;;5.30;4.80;;;12.50;98.90;;;;;;5030676;28;20200;-64
2022/09/02 06:09:50;;;;;;;7.40;5.60;;;12.60;98.70;;;;;;5032605;28;20233;-64
2022/09/02 06:12:19;;;;;;;6.20;5.35;;;12.80;98.80;;;;;;5030660;28;20187;-65
2022/09/02 06:14:48;;;;;;;5.10;4.60;;;12.90;98.80;;;;;;5028181;28;20219;-64
2022/09/02 06:17:15;;;;;;;6.10;5.27;;;13.00;98.80;;;;;;5031320;28;20446;-64
2022/09/02 06:19:43;;;;;;;6.15;4.50;;;13.20;98.80;;;;;;5032263;28;20438;-65
2022/09/02 06:22:10;;;;;;;10.50;5.10;;;13.30;98.30;;;;;;5031965;28;20233;-65
2022/09/02 06:24:37;;;;;;;4.97;4.57;;;13.40;98.40;;;;;;5032218;28;20219;-63
2022/09/02 06:27:06;;;;;;;5.43;4.93;;;13.60;98.40;;;;;;5030972;28;20430;-63
2022/09/02 06:29:33;;;;;;;4.50;4.10;;;13.70;98.50;;;;;;5031505;28;20858;-64
2022/09/02 06:32:02;;;;;;;4.90;4.40;;;13.90;98.70;;;;;;5029623;28;20519;-64
2022/09/02 06:34:29;;;;;;;6.20;5.30;;;14.10;99.80;;;;;;5031816;28;20481;-63
2022/09/02 06:36:57;;;;;;;6.33;4.73;;;14.30;98.20;;;;;;5028926;28;20481;-65
2022/09/02 06:39:25;;;;;;;5.40;4.90;;;14.50;98.10;;;;;;5024285;28;20438;-64
2022/09/02 06:41:53;;;;;;;4.50;4.00;;;14.60;97.60;;;;;;5030498;28;20438;-63
2022/09/02 06:44:21;;;;;;;6.77;4.27;;;14.80;97.20;;;;;;5029247;28;20445;-64
2022/09/02 06:46:53;;;;;;;5.00;3.97;;;14.80;96.20;;;;;;5027952;28;20473;-64
2022/09/02 06:49:22;;;;;;;5.33;4.83;;;14.90;95.90;;;;;;5030491;28;20438;-63
2022/09/02 06:51:51;;;;;;;5.20;4.13;;;15.00;94.90;;;;;;5031873;28;20446;-64
2022/09/02 06:54:20;;;;;;;4.40;3.87;;;14.90;94.40;;;;;;5030607;28;20565;-64
2022/09/02 06:56:48;;;;;;;4.97;4.00;;;15.00;94.80;;;;;;5031572;28;20455;-64
2022/09/02 06:59:16;;;;;;;4.20;3.60;;;15.10;95.30;;;;;;5030976;28;20430;-64
2022/09/02 07:01:48;;;;;;;4.67;4.23;;;15.40;95.70;;;;;;5030731;28;20445;-64
2022/09/02 07:07:05;;;;;;;5.47;3.70;;;15.90;95.30;;;;;;5026690;28;20444;-64
2022/09/02 07:09:32;;;;;;;5.90;3.77;;;16.10;95.20;;;;;;5031034;28;20492;-64
2022/09/02 07:12:00;;;;;;;7.47;3.80;;;16.30;95.10;;;;;;5033624;28;20858;-64
2022/09/02 07:14:28;;;;;;;5.40;3.40;;;16.50;93.30;;;;;;5034616;28;20572;-64
2022/09/02 07:16:58;;;;;;;5.03;4.47;;;16.70;93.80;;;;;;5034491;28;20473;-64
2022/09/02 07:19:25;;;;;;;4.30;3.90;;;17.00;94.80;;;;;;5034563;28;20944;-64
2022/09/02 07:21:52;;;;;;;4.33;3.77;;;17.30;93.20;;;;;;5034394;28;20533;-64
2022/09/02 07:24:21;;;;;;;3.80;3.40;;;17.60;91.80;;;;;;5034731;28;20472;-64
2022/09/02 07:26:48;;;;;;;5.60;3.80;;;17.80;92.70;;;;;;5034538;28;20529;-64
2022/09/02 07:29:16;;;;;;;4.97;3.93;;;18.30;93.80;;;;;;5034646;28;20964;-64
2022/09/02 07:31:46;;;;;;;4.07;2.83;;;19.00;92.00;;;;;;5034462;28;20851;-64
2022/09/02 07:34:13;;;;;;;4.40;2.93;;;19.50;90.00;;;;;;5034550;28;21015;-64
2022/09/02 07:36:41;;;;;;;4.30;3.10;;;20.20;91.10;;;;;;5034076;28;20525;-64
2022/09/02 07:39:10;;;;;;;4.50;3.33;;;21.20;91.40;;;;;;5034527;28;20479;-65
2022/09/02 07:41:41;;;;;;;3.13;2.53;;;23.10;88.00;;;;;;5034352;28;20539;-63
2022/09/02 07:44:08;;;;;;;3.83;2.53;;;25.70;79.40;;;;;;5034418;28;20442;-64
2022/09/02 07:46:36;;;;;;;3.73;2.40;;;28.00;64.20;;;;;;5034005;28;20501;-64
2022/09/02 07:49:06;;;;;;;5.37;3.00;;;30.00;56.90;;;;;;5033829;28;20529;-64
2022/09/02 07:51:34;;;;;;;3.63;2.60;;;31.50;48.70;;;;;;5033926;28;20488;-64
2022/09/02 07:54:01;;;;;;;4.80;2.93;;;32.60;47.20;;;;;;5034105;28;20473;-65
2022/09/02 07:56:28;;;;;;;3.63;2.10;;;33.20;42.20;;;;;;5034163;28;20489;-65
2022/09/02 07:58:56;;;;;;;5.03;2.67;;;33.50;37.20;;;;;;5034224;28;20925;-65
2022/09/02 08:01:24;;;;;;;3.40;2.50;;;34.00;40.30;;;;;;5033791;28;20442;-65
2022/09/02 08:03:51;;;;;;;4.67;2.80;;;34.90;37.70;;;;;;5034008;28;20527;-65
2022/09/02 08:06:19;;;;;;;3.53;2.37;;;35.40;30.40;;;;;;5033790;28;20537;-65
2022/09/02 08:08:46;;;;;;;4.63;2.23;;;35.70;30.70;;;;;;5033779;28;20434;-65
2022/09/02 08:11:13;;;;;;;3.13;2.43;;;36.40;29.60;;;;;;5033865;28;20438;-65
2022/09/02 08:13:40;;;;;;;3.40;2.60;;;37.10;28.90;;;;;;5033698;28;20842;-66
2022/09/02 08:16:08;;;;;;;4.90;2.90;;;38.00;28.10;;;;;;5032822;28;20888;-65
2022/09/02 08:18:36;;;;;;;7.00;2.67;;;38.70;26.60;;;;;;5033844;28;20449;-65
2022/09/02 08:21:03;;;;;;;3.23;2.83;;;39.00;25.70;;;;;;5033643;28;20442;-65
2022/09/02 08:23:29;;;;;;;5.40;2.63;;;39.60;26.40;;;;;;5033795;28;20469;-65
2022/09/02 08:25:59;;;;;;;3.47;2.43;;;40.50;23.80;;;;;;5033671;28;20527;-66
2022/09/02 08:28:26;;;;;;;5.10;2.20;;;40.90;24.40;;;;;;5033192;28;20457;-65
2022/09/02 08:30:54;;;;;;;6.30;2.60;;;41.50;23.50;;;;;;5033508;28;20499;-65
2022/09/02 08:33:22;;;;;;;4.00;2.73;;;42.10;23.10;;;;;;5032827;28;20936;-65
2022/09/02 08:35:49;;;;;;;3.20;2.20;;;42.50;21.60;;;;;;5033155;28;20920;-65
2022/09/02 08:38:16;;;;;;;3.23;2.83;;;42.70;21.40;;;;;;5033545;28;20450;-65
2022/09/02 08:40:44;;;;;;;3.10;2.30;;;43.00;20.10;;;;;;5033489;28;20529;-65
2022/09/02 08:43:24;;;;;;;3.63;2.40;;;42.90;21.10;;;;;;5033302;28;20442;-66
2022/09/02 08:45:53;;;;;;;4.70;2.40;;;43.10;20.30;;;;;;5033345;28;20535;-66
2022/09/02 08:48:30;;;;;;;5.37;4.90;;;43.30;19.80;;;;;;5032456;28;20532;-66
2022/09/02 08:51:05;;;;;;;6.87;4.33;;;43.50;19.70;;;;;;5033445;28;20477;-65
2022/09/02 08:53:36;;;;;;;3.77;2.70;;;44.10;19.70;;;;;;5033147;28;20480;-66
2022/09/02 08:56:05;;;;;;;2.80;2.20;;;44.80;19.30;;;;;;5033112;28;20535;-66
2022/09/02 08:58:39;;;;;;;3.27;2.40;;;45.30;18.70;;;;;;5033253;28;20841;-66
2022/09/02 09:01:14;;;;;;;3.67;2.50;;;45.70;18.40;;;;;;5033326;28;20568;-66
2022/09/02 09:03:59;;;;;;;4.93;2.63;;;45.80;17.20;;;;;;5033091;28;20441;-66
2022/09/02 09:06:34;;;;;;;3.43;2.97;;;45.90;17.20;;;;;;5032978;28;20485;-65
2022/09/02 09:09:11;;;;;;;2.77;2.47;;;46.00;17.10;;;;;;5033063;28;20437;-65
2022/09/02 09:11:44;;;;;;;3.67;2.67;;;46.40;16.70;;;;;;5033519;28;20469;-66
2022/09/02 09:14:24;;;;;;;5.57;4.70;;;46.30;16.70;;;;;;5033214;28;20470;-66
2022/09/02 09:16:58;;;;;;;4.13;3.27;;;46.40;17.40;;;;;;5032868;28;20441;-66
2022/09/02 09:19:42;;;;;;;3.00;2.23;;;47.00;16.70;;;;;;5032684;28;20499;-67
2022/09/02 09:22:12;;;;;;;3.30;3.00;;;47.50;16.60;;;;;;5032931;28;20499;-66
2022/09/02 09:24:41;;;;;;;5.33;4.83;;;47.60;16.00;;;;;;5032550;28;20521;-65
2022/09/02 09:27:13;;;;;;;2.70;2.30;;;47.80;16.10;;;;;;5033533;28;20441;-66
2022/09/02 09:29:40;;;;;;;4.00;3.07;;;48.10;16.40;;;;;;5037012;28;20466;-67
2022/09/02 09:32:16;;;;;;;2.80;2.50;;;48.50;16.10;;;;;;5036772;28;20452;-65
2022/09/02 09:35:00;;;;;;;2.73;2.20;;;48.90;15.90;;;;;;5036917;28;20455;-66
2022/09/02 09:37:36;;;;;;;3.00;2.37;;;49.30;15.20;;;;;;5036620;28;20439;-65
2022/09/02 09:40:23;;;;;;;3.33;2.23;;;49.50;14.50;;;;;;5036745;28;20437;-65
2022/09/02 09:42:55;;;;;;;3.13;2.47;;;49.50;15.10;;;;;;5036528;28;20430;-66
2022/09/02 09:45:32;;;;;;;4.10;3.70;;;49.80;14.70;;;;;;5036522;28;20493;-66
2022/09/02 09:48:22;;;;;;;3.70;3.10;;;50.00;14.70;;;;;;5036189;28;21002;-66
2022/09/02 09:51:14;;;;;;;4.00;2.93;;;50.20;13.80;;;;;;5036463;28;20452;-69
2022/09/02 09:53:41;;;;;;;3.60;2.70;;;49.90;14.10;;;;;;5036105;28;20441;-66
2022/09/02 09:56:27;;;;;;;3.30;2.80;;;49.70;13.80;;;;;;5036368;28;20453;-65
2022/09/02 09:58:54;;;;;;;8.10;2.67;;;49.90;13.90;;;;;;5036351;28;20430;-66
2022/09/02 10:01:23;;;;;;;3.97;2.10;;;49.80;13.90;;;;;;5036448;28;20438;-66
2022/09/02 10:03:53;;;;;;;3.47;2.73;;;48.50;15.30;;;;;;5036226;28;20533;-66
2022/09/02 10:06:23;;;;;;;5.00;2.50;;;48.80;15.60;;;;;;5036230;28;20589;-66
2022/09/02 10:08:52;;;;;;;3.13;2.20;;;49.40;14.80;;;;;;5036243;28;20492;-68
2022/09/02 10:11:26;;;;;;;4.47;2.80;;;49.40;14.00;;;;;;5036216;28;20468;-66
2022/09/02 10:13:59;;;;;;;2.90;2.30;;;49.80;14.50;;;;;;5036078;28;20469;-66
2022/09/02 10:16:41;;;;;;;3.80;2.37;;;50.10;14.40;;;;;;5035841;28;20449;-66
2022/09/02 10:19:16;;;;;;;15.07;13.77;;;50.60;14.40;;;;;;5035922;28;20437;-66
2022/09/02 10:22:19;;;;;;;3.57;2.90;;;50.80;14.00;;;;;;5036206;28;20449;-65
2022/09/02 10:25:08;;;;;;;3.67;2.30;;;51.30;13.40;;;;;;5035460;28;20503;-66
2022/09/02 10:27:46;;;;;;;2.90;2.20;;;51.40;13.80;;;;;;5036075;28;20452;-65
2022/09/02 10:30:18;;;;;;;3.30;2.47;;;51.60;13.40;;;;;;5035567;28;20480;-66
2022/09/02 10:33:10;;;;;;;4.03;3.00;;;51.80;13.40;;;;;;5035790;28;20476;-66
2022/09/02 10:35:43;;;;;;;2.63;2.13;;;52.20;13.10;;;;;;5035997;28;20437;-66
2022/09/02 10:38:32;;;;;;;3.80;2.87;;;52.50;12.40;;;;;;5035592;28;20449;-67
2022/09/02 10:41:07;;;;;;;2.70;2.40;;;52.50;12.60;;;;;;5035300;28;20516;-66
2022/09/02 10:43:54;;;;;;;4.23;2.70;;;52.50;12.40;;;;;;5035784;28;20448;-65
2022/09/02 10:46:24;;;;;;;3.00;2.20;;;52.30;12.90;;;;;;5035304;28;20489;-66
2022/09/02 10:49:01;;;;;;;3.00;2.53;;;52.30;12.60;;;;;;5035470;28;20448;-65
2022/09/02 10:51:38;;;;;;;3.40;2.43;;;52.10;12.50;;;;;;5035518;28;20442;-66
2022/09/02 10:54:20;;;;;;;3.13;2.10;;;51.70;12.60;;;;;;5035420;28;20480;-65
2022/09/02 10:56:55;;;;;;;3.20;2.37;;;51.00;13.00;;;;;;5035166;28;20473;-65
2022/09/02 10:59:28;;;;;;;2.90;2.37;;;50.20;13.20;;;;;;5035158;28;20452;-65
2022/09/02 11:02:01;;;;;;;3.23;2.50;;;49.30;13.30;;;;;;5034676;28;20957;-65
2022/09/02 11:04:37;;;;;;;4.17;2.93;;;48.30;13.90;;;;;;5035244;28;20446;-65
2022/09/02 11:07:05;;;;;;;2.90;2.10;;;47.60;14.60;;;;;;5034068;28;20481;-66
2022/09/02 11:09:38;;;;;;;3.50;2.20;;;47.10;14.60;;;;;;5034785;28;20434;-65
2022/09/02 11:12:14;;;;;;;2.97;2.30;;;46.40;15.30;;;;;;5029008;28;20771;-68
2022/09/02 11:14:50;;;;;;;5.30;2.10;;;45.40;15.20;;;;;;5030359;28;20442;-65
2022/09/02 11:17:23;;;;;;;3.37;2.30;;;44.80;15.20;;;;;;5034799;28;20908;-65
2022/09/02 11:19:55;;;;;;;3.10;2.10;;;44.20;15.60;;;;;;5034537;28;20442;-65
2022/09/02 11:22:27;;;;;;;4.40;2.60;;;43.70;17.00;;;;;;5029248;28;20532;-65
2022/09/02 11:25:00;;;;;;;2.90;2.00;;;43.10;15.00;;;;;;5034514;28;20497;-65
2022/09/02 11:27:33;;;;;;;3.00;2.00;;;42.40;16.30;;;;;;5033896;28;20450;-66
2022/09/02 11:30:04;;;;;;;2.33;1.87;;;41.70;18.10;;;;;;5039521;28;20987;-65
2022/09/02 11:32:38;;;;;;;4.00;2.50;;;40.90;18.50;;;;;;5036596;28;20470;-65
2022/09/02 11:35:09;;;;;;;3.07;2.40;;;40.50;19.50;;;;;;5034438;28;20438;-69
2022/09/02 11:37:43;;;;;;;2.40;1.77;;;40.10;20.20;;;;;;5033672;28;20430;-65
2022/09/02 11:40:15;;;;;;;2.97;2.17;;;39.70;19.30;;;;;;5039948;28;20487;-65
2022/09/02 11:43:02;;;;;;;3.23;2.10;;;39.10;19.40;;;;;;5035220;28;20460;-65
2022/09/02 11:46:12;;;;;;;2.87;2.30;;;38.80;20.90;;;;;;5033044;28;20462;-65
2022/09/02 11:49:11;;;;;;;4.23;2.00;;;38.40;20.20;;;;;;5030404;28;20433;-65
2022/09/02 11:52:14;;;;;;;4.10;2.53;;;37.80;21.30;;;;;;5021408;28;20528;-65
2022/09/02 11:54:45;;;;;;;3.03;1.93;;;37.20;21.70;;;;;;5030907;28;20491;-65
2022/09/02 11:57:21;;;;;;;5.90;2.27;;;36.80;21.50;;;;;;5032492;28;20845;-65
2022/09/02 12:00:28;;;;;;;3.73;2.20;;;36.60;21.60;;;;;;5033976;28;21075;-65
2022/09/02 12:03:18;;;;;;;2.90;2.00;;;36.20;21.30;;;;;;5033696;28;20438;-65
2022/09/02 12:05:55;;;;;;;2.60;1.80;;;35.70;22.60;;;;;;5033819;28;20485;-65
2022/09/02 12:09:02;;;;;;;3.10;2.17;;;35.20;23.30;;;;;;5033958;28;20925;-65
2022/09/02 12:11:41;;;;;;;4.37;1.97;;;34.80;24.70;;;;;;5034029;28;20453;-65
2022/09/02 12:14:12;;;;;;;4.97;2.67;;;34.40;25.50;;;;;;5033752;28;20446;-65
2022/09/02 12:16:44;;;;;;;3.30;2.33;;;34.00;25.80;;;;;;5033520;28;20491;-65
2022/09/02 12:19:42;;;;;;;3.23;2.40;;;33.70;26.90;;;;;;5033667;28;20501;-65
2022/09/02 12:22:31;;;;;;;3.07;2.30;;;33.30;28.00;;;;;;5033220;28;20442;-65
2022/09/02 12:24:59;;;;;;;4.97;3.37;;;32.70;28.60;;;;;;5033317;28;20484;-65
2022/09/02 12:27:33;;;;;;;4.80;2.50;;;32.40;28.80;;;;;;5033582;28;20547;-65
2022/09/02 12:30:01;;;;;;;3.13;2.27;;;32.20;28.80;;;;;;5033462;28;20445;-65
2022/09/02 12:33:04;;;;;;;3.67;2.73;;;31.90;29.40;;;;;;5033439;28;20473;-65
2022/09/02 12:35:50;;;;;;;4.40;2.40;;;31.60;28.90;;;;;;5032788;28;20445;-65
2022/09/02 12:38:29;;;;;;;3.40;2.07;;;31.10;29.70;;;;;;5032702;28;20473;-64
2022/09/02 12:41:11;;;;;;;2.83;2.00;;;30.80;29.20;;;;;;5033546;28;20445;-65
2022/09/02 12:43:50;;;;;;;4.97;2.30;;;30.60;31.80;;;;;;5033285;28;20456;-64
2022/09/02 12:46:26;;;;;;;2.90;2.20;;;30.30;30.20;;;;;;5032979;28;20485;-65
2022/09/02 12:48:59;;;;;;;3.20;2.00;;;30.20;32.40;;;;;;5033288;28;20446;-65
2022/09/02 12:51:52;;;;;;;3.47;2.47;;;30.00;31.10;;;;;;5033383;28;20835;-65
2022/09/02 12:54:26;;;;;;;3.60;2.00;;;29.70;31.70;;;;;;5033246;28;20473;-65
2022/09/02 12:56:53;;;;;;;2.57;1.70;;;29.70;32.70;;;;;;5033380;28;20446;-65
2022/09/02 12:59:28;;;;;;;3.63;2.10;;;29.50;33.70;;;;;;5033263;28;20519;-65
2022/09/02 13:02:12;;;;;;;3.87;2.00;;;29.40;33.40;;;;;;5032488;28;20444;-64
2022/09/02 13:04:45;;;;;;;2.67;1.80;;;29.20;33.10;;;;;;5033248;28;20488;-64
2022/09/02 13:07:53;;;;;;;4.23;2.23;;;29.10;33.70;;;;;;5033100;28;20517;-65
2022/09/02 13:10:37;;;;;;;3.90;2.37;;;28.90;33.70;;;;;;5032970;28;20438;-65
2022/09/02 13:13:43;;;;;;;7.60;2.13;;;28.80;33.40;;;;;;5033109;28;20441;-64